createdAt,value
2022-12-12T00:04:02.719Z,99770.19
2022-12-12T00:09:04.727Z,99775.50
2022-12-12T00:14:06.206Z,99769.06
2022-12-12T00:19:07.627Z,99768.75
2022-12-12T00:24:09.181Z,99775.75
2022-12-12T00:29:11.207Z,99774.78
2022-12-12T00:34:13.392Z,99780.94
2022-12-12T00:39:18.351Z,99770.88
2022-12-12T00:44:19.936Z,99778.41
2022-12-12T00:49:21.328Z,99780.94
2022-12-12T00:54:23.594Z,99782.31
2022-12-12T00:59:25.013Z,99785.53
2022-12-12T01:04:26.382Z,99787.19
2022-12-12T01:09:27.774Z,99786.50
2022-12-12T01:14:29.164Z,99793.19
2022-12-12T01:19:30.513Z,99792.66
2022-12-12T01:24:32.015Z,99789.31
2022-12-12T01:29:34.764Z,99789.72
2022-12-12T01:34:36.162Z,99791.25
2022-12-12T01:39:37.519Z,99782.59
2022-12-12T01:44:45.878Z,99790.69
2022-12-12T01:49:59.438Z,99794.34
2022-12-12T01:55:05.256Z,99790.69
2022-12-12T02:00:08.448Z,99791.38
2022-12-12T02:05:23.047Z,99795.47
2022-12-12T02:10:24.510Z,99811.22
2022-12-12T02:15:30.328Z,99802.31
2022-12-12T02:20:45.902Z,99800.03
2022-12-12T02:26:21.053Z,99801.88
2022-12-12T02:31:27.320Z,99804.25
2022-12-12T02:37:00.646Z,99808.44
2022-12-12T02:42:08.484Z,99811.09
2022-12-12T02:47:16.048Z,99818.22
2022-12-12T02:52:17.777Z,99812.22
2022-12-12T02:57:24.404Z,99811.38
2022-12-12T03:02:50.152Z,99820.59
2022-12-12T03:08:11.396Z,99819.19
2022-12-12T03:13:27.259Z,99819.50
2022-12-12T03:18:40.531Z,99821.00
2022-12-12T03:23:46.995Z,99823.53
2022-12-12T03:28:55.960Z,99829.66
2022-12-12T03:34:02.291Z,99831.34
2022-12-12T03:39:13.388Z,99824.78
2022-12-12T03:44:20.535Z,99822.81
2022-12-12T03:49:34.441Z,99825.91
2022-12-12T03:54:48.718Z,99824.91
2022-12-12T03:59:58.435Z,99820.59
2022-12-12T04:05:20.589Z,99831.47
2022-12-12T04:10:43.812Z,99839.44
2022-12-12T04:15:51.977Z,99839.72
2022-12-12T04:21:18.246Z,99827.56
2022-12-12T04:26:41.633Z,99837.34
2022-12-12T04:31:58.663Z,99846.56
2022-12-12T04:37:01.466Z,99847.25
2022-12-12T04:42:06.687Z,99846.81
2022-12-12T04:47:09.959Z,99858.31
2022-12-12T04:52:15.205Z,99856.75
2022-12-12T04:57:25.909Z,99855.91
2022-12-12T05:02:40.326Z,99863.03
2022-12-12T05:07:45.703Z,99858.44
2022-12-12T05:12:49.982Z,99864.28
2022-12-12T05:18:00.732Z,99865.13
2022-12-12T05:23:02.138Z,99865.81
2022-12-12T05:28:03.610Z,99868.06
2022-12-12T05:33:05.130Z,99868.91
2022-12-12T05:38:06.536Z,99869.75
2022-12-12T05:43:07.893Z,99874.75
2022-12-12T05:48:09.236Z,99874.47
2022-12-12T05:53:11.262Z,99874.31
2022-12-12T05:58:12.601Z,99882.16
2022-12-12T06:03:14.397Z,99882.28
2022-12-12T06:08:16.241Z,99879.75
2022-12-12T06:13:19.418Z,99886.88
2022-12-12T06:18:20.841Z,99886.88
2022-12-12T06:23:22.176Z,99891.50
2022-12-12T06:28:23.574Z,99890.19
2022-12-12T06:33:25.555Z,99892.25
2022-12-12T06:38:27.095Z,99897.84
2022-12-12T06:43:28.458Z,99899.13
2022-12-12T06:48:31.611Z,99904.31
2022-12-12T06:53:33.574Z,99903.19
2022-12-12T06:58:35.615Z,99911.03
2022-12-12T07:03:37.028Z,99913.81
2022-12-12T07:08:38.888Z,99918.97
2022-12-12T07:13:40.885Z,99928.06
2022-12-12T07:18:42.308Z,99933.41
2022-12-12T07:23:44.138Z,99933.44
2022-12-12T07:28:45.812Z,99941.66
2022-12-12T07:33:47.585Z,99939.72
2022-12-12T07:38:49.057Z,99939.34
2022-12-12T07:43:52.176Z,99955.25
2022-12-12T07:48:53.871Z,99956.91
2022-12-12T07:53:55.336Z,99959.56
2022-12-12T07:58:58.014Z,99958.47
2022-12-12T08:03:59.912Z,99962.50
2022-12-12T08:09:01.824Z,99967.81
2022-12-12T08:14:11.200Z,99971.50
2022-12-12T08:19:14.483Z,99983.66
2022-12-12T08:24:19.140Z,99977.09
2022-12-12T08:29:20.959Z,99987.03
2022-12-12T08:34:22.443Z,99995.28
2022-12-12T08:39:23.891Z,99994.31
2022-12-12T08:44:25.454Z,99996.84
2022-12-12T08:49:26.985Z,99994.34
2022-12-12T08:54:28.485Z,99997.84
2022-12-12T08:59:30.232Z,99994.63
2022-12-12T09:04:33.672Z,99996.72
2022-12-12T09:09:35.233Z,100004.69
2022-12-12T09:14:36.844Z,100001.22
2022-12-12T09:19:38.398Z,100010.16
2022-12-12T09:24:39.893Z,100008.88
2022-12-12T09:29:41.475Z,100022.03
2022-12-12T09:34:43.209Z,100024.69
2022-12-12T09:39:44.825Z,100027.94
2022-12-12T09:44:47.422Z,100023.72
2022-12-12T09:49:55.635Z,100026.53
2022-12-12T09:54:59.997Z,100035.47
2022-12-12T10:00:12.065Z,100036.84
2022-12-12T10:05:41.226Z,100029.84
2022-12-12T10:10:46.290Z,100029.16
2022-12-12T10:15:52.238Z,100020.59
2022-12-12T10:20:57.970Z,100010.91
2022-12-12T10:26:05.287Z,100009.06
2022-12-12T10:31:09.433Z,100012.25
2022-12-12T10:36:27.917Z,100018.50
2022-12-12T10:42:15.375Z,100020.16
2022-12-12T10:47:17.065Z,100020.47
2022-12-12T10:52:22.012Z,100023.13
2022-12-12T10:57:26.189Z,100020.47
2022-12-12T11:02:52.328Z,100024.94
2022-12-12T11:08:19.539Z,100016.34
2022-12-12T11:13:29.379Z,100006.56
2022-12-12T11:18:31.006Z,100011.19
2022-12-12T11:23:34.116Z,99999.91
2022-12-12T11:28:37.958Z,100005.66
2022-12-12T11:33:49.650Z,100007.41
2022-12-12T11:38:54.894Z,99999.84
2022-12-12T11:44:00.278Z,99999.44
2022-12-12T11:49:04.837Z,99996.34
2022-12-12T11:54:44.977Z,100004.91
2022-12-12T12:00:09.857Z,99990.47
2022-12-12T12:05:25.466Z,99989.34
2022-12-12T12:11:02.287Z,99982.88
2022-12-12T12:16:46.820Z,99981.47
2022-12-12T12:22:16.780Z,99982.88
2022-12-12T12:27:52.138Z,99992.75
2022-12-12T12:33:15.140Z,99987.19
2022-12-12T12:38:31.763Z,99987.59
2022-12-12T12:43:57.814Z,99984.53
2022-12-12T12:49:10.617Z,99990.00
2022-12-12T12:54:26.007Z,99982.72
2022-12-12T12:59:34.175Z,99972.66
2022-12-12T13:04:53.894Z,99972.53
2022-12-12T13:10:04.661Z,99969.44
2022-12-12T13:15:44.849Z,99972.66
2022-12-12T13:21:05.417Z,99967.47
2022-12-12T13:26:13.249Z,99958.81
2022-12-12T13:31:24.382Z,99970.00
2022-12-12T13:36:31.587Z,99971.38
2022-12-12T13:41:56.370Z,99971.81
2022-12-12T13:46:59.094Z,99970.44
2022-12-12T13:52:40.558Z,99973.94
2022-12-12T13:57:57.520Z,99966.41
2022-12-12T14:03:05.162Z,99972.13
2022-12-12T14:08:13.684Z,99972.97
2022-12-12T14:13:24.152Z,99973.50
2022-12-12T14:18:33.672Z,99982.31
2022-12-12T14:23:40.131Z,99982.59
2022-12-12T14:28:43.338Z,99980.47
2022-12-12T14:34:05.609Z,99981.28
2022-12-12T14:39:24.918Z,99982.53
2022-12-12T14:44:37.938Z,99987.13
2022-12-12T14:49:40.496Z,99988.25
2022-12-12T14:54:42.027Z,99995.66
2022-12-12T14:59:43.520Z,99997.59
2022-12-12T15:04:49.478Z,99991.72
2022-12-12T15:09:51.074Z,99983.91
2022-12-12T15:21:37.760Z,100000.78
2022-12-12T15:26:39.273Z,100001.50
2022-12-12T15:31:44.325Z,99998.91
2022-12-12T15:36:45.930Z,100000.16
2022-12-12T15:41:47.975Z,99999.16
2022-12-12T15:46:50.485Z,100001.75
2022-12-12T15:51:52.227Z,100005.38
2022-12-12T15:56:56.515Z,100015.06
2022-12-12T16:02:13.678Z,100015.72
2022-12-12T16:07:21.620Z,100011.88
2022-12-12T16:12:57.022Z,100002.47
2022-12-12T16:18:04.607Z,100010.63
2022-12-12T16:23:31.810Z,100013.53
2022-12-12T16:28:33.498Z,100019.75
2022-12-12T16:33:38.724Z,100024.03
2022-12-12T16:38:42.065Z,100027.31
2022-12-12T16:43:44.939Z,100019.41
2022-12-12T16:48:46.675Z,100020.28
2022-12-12T16:53:48.099Z,100022.13
2022-12-12T16:58:50.745Z,100018.31
2022-12-12T17:03:52.471Z,100027.97
2022-12-12T17:08:54.136Z,100025.25
2022-12-12T17:13:55.707Z,100026.56
2022-12-12T17:18:58.429Z,100032.22
2022-12-12T17:23:59.964Z,100035.38
2022-12-12T17:29:02.438Z,100039.09
2022-12-12T17:34:05.845Z,100048.22
2022-12-12T17:39:07.646Z,100047.75
2022-12-12T17:44:10.022Z,100051.94
2022-12-12T17:49:11.652Z,100048.97
2022-12-12T17:54:13.199Z,100053.16
2022-12-12T17:59:14.895Z,100053.16
2022-12-12T18:04:16.456Z,100053.63
2022-12-12T18:09:18.551Z,100047.84
2022-12-12T18:14:20.302Z,100051.91
2022-12-12T18:19:24.132Z,100040.97
2022-12-12T18:24:29.304Z,100042.66
2022-12-12T18:29:32.153Z,100043.38
2022-12-12T18:34:34.245Z,100037.97
2022-12-12T18:39:35.999Z,100049.97
2022-12-12T18:44:37.943Z,100057.41
2022-12-12T18:49:39.624Z,100063.16
2022-12-12T18:54:41.283Z,100059.88
2022-12-12T18:59:45.392Z,100059.13
2022-12-12T19:04:48.541Z,100067.19
2022-12-12T19:09:50.132Z,100071.84
2022-12-12T19:15:15.709Z,100072.41
2022-12-12T19:20:13.475Z,100075.41
2022-12-12T19:25:17.258Z,100079.31
2022-12-12T19:30:18.971Z,100074.81
2022-12-12T19:35:21.448Z,100072.53
2022-12-12T19:40:22.972Z,100065.88
2022-12-12T19:45:24.552Z,100063.31
2022-12-12T19:50:26.297Z,100065.22
2022-12-12T19:55:27.825Z,100067.72
2022-12-12T20:00:29.309Z,100067.84
2022-12-12T20:05:30.858Z,100060.03
2022-12-12T20:10:36.382Z,100067.22
2022-12-12T20:15:39.238Z,100071.88
2022-12-12T20:20:40.819Z,100068.63
2022-12-12T20:25:42.812Z,100062.72
2022-12-12T20:30:44.371Z,100075.31
2022-12-12T20:35:45.996Z,100070.56
2022-12-12T20:40:49.114Z,100076.28
2022-12-12T20:45:51.106Z,100074.03
2022-12-12T20:50:54.789Z,100075.34
2022-12-12T20:55:59.030Z,100072.38
2022-12-12T21:01:03.433Z,100085.69
2022-12-12T21:06:36.465Z,100072.63
2022-12-12T21:11:38.776Z,100063.13
2022-12-12T21:16:40.959Z,100075.03
2022-12-12T21:21:43.492Z,100066.59
2022-12-12T21:26:45.835Z,100057.22
2022-12-12T21:31:51.628Z,100060.91
2022-12-12T21:37:22.635Z,100051.63
2022-12-12T21:42:24.161Z,100065.00
2022-12-12T21:47:25.669Z,100061.63
2022-12-12T21:52:27.161Z,100068.06
2022-12-12T21:57:28.636Z,100063.88
2022-12-12T22:02:30.349Z,100065.13
2022-12-12T22:07:34.744Z,100057.53
2022-12-12T22:12:36.209Z,100058.59
2022-12-12T22:17:37.762Z,100060.16
2022-12-12T22:22:39.393Z,100053.72
2022-12-12T22:27:40.874Z,100052.75
2022-12-12T22:32:43.327Z,100054.78
2022-12-12T22:37:45.120Z,100052.16
2022-12-12T22:42:46.559Z,100048.41
2022-12-12T22:47:48.038Z,100049.06
2022-12-12T22:52:49.484Z,100047.28
2022-12-12T22:57:54.054Z,100034.97
2022-12-12T23:02:57.019Z,100039.69
2022-12-12T23:07:59.506Z,100040.75
2022-12-12T23:13:01.178Z,100039.34
2022-12-12T23:18:02.583Z,100036.06
2022-12-12T23:23:03.922Z,100029.16
2022-12-12T23:28:07.129Z,100031.88
2022-12-12T23:33:12.081Z,100033.84
2022-12-12T23:38:13.743Z,100037.72
2022-12-12T23:43:15.157Z,100037.31
2022-12-12T23:48:16.506Z,100041.28
2022-12-12T23:53:17.871Z,100034.34
2022-12-12T23:58:19.533Z,100029.25
